Time;durP1;ratioP1;P1;durP2;ratioP2;P2;SDS_P1;SDS_P2;PMS_P1;PMS_P2;Temp;Humidity;BMP_temperature;BMP_pressure;BME280_temperature;BME280_humidity;BME280_pressure;Samples;Min_cycle;Max_cycle;Signal;HPM_P1;HPM_P2
2021/06/15 00:00:58;;;;;;;6.63;3.40;;;18.40;65.70;;;;;;5042988;28;20074;-66
2021/06/15 00:03:24;;;;;;;5.82;3.13;;;18.30;65.70;;;;;;5048975;28;20036;-65
2021/06/15 00:05:49;;;;;;;5.05;3.13;;;18.30;65.70;;;;;;5048973;28;20125;-65
2021/06/15 00:08:15;;;;;;;5.55;2.90;;;18.30;65.80;;;;;;5049000;28;20433;-66
2021/06/15 00:10:42;;;;;;;3.97;3.47;;;18.30;65.90;;;;;;5046692;28;20045;-66
2021/06/15 00:13:08;;;;;;;3.60;2.88;;;18.20;65.90;;;;;;5034122;28;20029;-67
2021/06/15 00:15:34;;;;;;;8.57;3.95;;;18.10;66.10;;;;;;5031492;28;20064;-65
2021/06/15 00:18:00;;;;;;;5.03;3.65;;;18.10;66.30;;;;;;5049161;28;20075;-65
2021/06/15 00:20:26;;;;;;;7.63;3.67;;;18.00;66.50;;;;;;5031345;28;20017;-66
2021/06/15 00:22:51;;;;;;;5.32;3.45;;;18.00;66.60;;;;;;5049420;28;20029;-66
2021/06/15 00:25:17;;;;;;;4.78;3.58;;;18.00;66.80;;;;;;5048243;28;20017;-68
2021/06/15 00:27:44;;;;;;;6.68;4.25;;;17.90;66.80;;;;;;5049226;28;20032;-67
2021/06/15 00:30:12;;;;;;;6.00;4.13;;;17.90;67.00;;;;;;5048639;28;20025;-66
2021/06/15 00:32:37;;;;;;;6.57;4.07;;;17.80;66.90;;;;;;5029184;28;20017;-66
2021/06/15 00:35:03;;;;;;;4.93;3.72;;;17.80;66.90;;;;;;5042962;28;20031;-66
2021/06/15 00:37:29;;;;;;;8.25;3.80;;;17.80;67.00;;;;;;5048772;28;20538;-66
2021/06/15 00:39:55;;;;;;;5.82;3.90;;;17.70;67.10;;;;;;5049482;28;20029;-67
2021/06/15 00:42:22;;;;;;;4.93;3.45;;;17.60;67.10;;;;;;5049232;28;20028;-66
2021/06/15 00:44:49;;;;;;;7.10;3.42;;;17.60;67.20;;;;;;5029005;28;20467;-66
2021/06/15 00:47:15;;;;;;;4.28;3.55;;;17.50;67.30;;;;;;5050744;28;20029;-66
2021/06/15 00:49:42;;;;;;;5.97;3.15;;;17.50;67.50;;;;;;5052937;28;20029;-66
2021/06/15 00:52:09;;;;;;;5.38;2.90;;;17.40;67.70;;;;;;5052885;28;20179;-66
2021/06/15 00:54:34;;;;;;;2.90;2.67;;;17.40;67.90;;;;;;5051659;28;20473;-66
2021/06/15 00:57:01;;;;;;;6.18;3.22;;;17.30;67.90;;;;;;5040829;28;20037;-66
2021/06/15 00:59:26;;;;;;;3.95;2.63;;;17.30;68.00;;;;;;5051684;28;20039;-66
2021/06/15 01:01:52;;;;;;;3.85;3.00;;;17.20;68.10;;;;;;5026528;28;20025;-66
2021/06/15 01:04:19;;;;;;;4.15;3.45;;;17.20;68.20;;;;;;5051544;28;20048;-67
2021/06/15 01:06:50;;;;;;;6.43;2.95;;;17.10;68.30;;;;;;5052254;28;20028;-66
2021/06/15 01:09:43;;;;;;;3.10;2.65;;;17.00;68.50;;;;;;5034816;28;20104;-66
2021/06/15 01:12:23;;;;;;;7.07;3.35;;;17.00;68.80;;;;;;5052514;28;20024;-66
2021/06/15 01:14:55;;;;;;;8.55;3.50;;;16.90;69.40;;;;;;5051572;28;20103;-66
2021/06/15 01:17:36;;;;;;;4.10;3.17;;;16.80;68.70;;;;;;5051882;28;20036;-67
2021/06/15 01:20:11;;;;;;;6.22;2.80;;;16.80;69.20;;;;;;5034819;28;20029;-65
2021/06/15 01:23:07;;;;;;;3.83;3.10;;;16.90;69.00;;;;;;5052359;28;20035;-66
2021/06/15 01:25:56;;;;;;;5.88;3.00;;;16.80;69.10;;;;;;5050954;28;20052;-65
2021/06/15 01:28:26;;;;;;;6.13;3.00;;;16.70;69.20;;;;;;5052297;28;20025;-65
2021/06/15 01:31:10;;;;;;;3.65;2.83;;;16.70;69.10;;;;;;5047477;28;20111;-66
2021/06/15 01:33:41;;;;;;;5.30;3.22;;;16.70;69.30;;;;;;5038633;28;20057;-65
2021/06/15 01:36:10;;;;;;;4.25;2.67;;;16.60;69.20;;;;;;5046818;28;20025;-66
2021/06/15 01:38:42;;;;;;;4.88;2.97;;;16.60;69.10;;;;;;5052230;28;20029;-65
2021/06/15 01:41:15;;;;;;;5.18;3.15;;;16.60;69.40;;;;;;5051934;28;20155;-66
2021/06/15 01:43:46;;;;;;;7.22;3.40;;;16.50;69.40;;;;;;5051947;28;20037;-66
2021/06/15 01:46:14;;;;;;;3.17;2.88;;;16.50;69.50;;;;;;5050253;28;20024;-65
2021/06/15 01:49:02;;;;;;;5.00;2.83;;;16.50;69.40;;;;;;5034065;28;20025;-66
2021/06/15 01:51:29;;;;;;;2.67;2.40;;;16.40;69.70;;;;;;5051663;28;20544;-66
2021/06/15 01:54:11;;;;;;;6.20;3.10;;;16.40;69.50;;;;;;5050580;28;20041;-66
2021/06/15 01:56:46;;;;;;;7.10;3.08;;;16.40;70.00;;;;;;5051075;28;20029;-66
2021/06/15 01:59:14;;;;;;;4.30;2.78;;;16.40;70.00;;;;;;5052060;28;20040;-66
2021/06/15 02:01:44;;;;;;;3.47;2.85;;;16.30;69.90;;;;;;5036825;28;20036;-66
2021/06/15 02:04:11;;;;;;;9.73;3.22;;;16.30;70.00;;;;;;5030384;28;20025;-66
2021/06/15 02:06:39;;;;;;;9.65;3.03;;;16.20;70.10;;;;;;5050144;28;20036;-66
2021/06/15 02:09:06;;;;;;;2.92;2.60;;;16.10;70.10;;;;;;5051488;28;20049;-66
2021/06/15 02:11:33;;;;;;;5.57;3.10;;;16.10;70.10;;;;;;5050904;28;20045;-66
2021/06/15 02:14:03;;;;;;;4.82;3.00;;;16.10;70.20;;;;;;5050184;28;20497;-66
2021/06/15 02:16:29;;;;;;;4.38;2.83;;;16.10;70.30;;;;;;5051019;28;20107;-66
2021/06/15 02:18:56;;;;;;;2.75;2.53;;;16.10;70.30;;;;;;5051317;28;20029;-66
2021/06/15 02:21:24;;;;;;;3.35;3.00;;;16.00;70.40;;;;;;5050958;28;20169;-66
2021/06/15 02:23:54;;;;;;;4.85;3.25;;;16.00;70.40;;;;;;5050566;28;20484;-66
2021/06/15 02:26:23;;;;;;;4.22;3.03;;;16.00;70.50;;;;;;5051105;28;20100;-66
2021/06/15 02:28:49;;;;;;;4.82;3.25;;;16.00;70.60;;;;;;5051366;28;20017;-66
2021/06/15 02:31:18;;;;;;;4.18;3.13;;;15.90;70.60;;;;;;5040045;28;20044;-67
2021/06/15 02:33:54;;;;;;;5.63;3.33;;;15.80;70.90;;;;;;5045880;28;20060;-66
2021/06/15 02:36:26;;;;;;;5.82;3.35;;;15.80;71.20;;;;;;5050459;28;20179;-66
2021/06/15 02:39:00;;;;;;;4.40;3.72;;;15.70;70.90;;;;;;5050674;28;20078;-66
2021/06/15 02:41:29;;;;;;;4.10;3.35;;;15.60;70.90;;;;;;5033087;28;20029;-66
2021/06/15 02:43:59;;;;;;;4.28;3.35;;;15.60;71.10;;;;;;5049889;28;20021;-66
2021/06/15 02:46:27;;;;;;;10.65;4.00;;;15.50;71.20;;;;;;5032500;28;20053;-66
2021/06/15 02:48:56;;;;;;;5.18;3.58;;;15.50;71.40;;;;;;5032806;28;20032;-65
2021/06/15 02:51:23;;;;;;;5.40;3.40;;;15.50;71.50;;;;;;5050572;28;20033;-66
2021/06/15 02:54:14;;;;;;;6.25;3.78;;;15.40;71.60;;;;;;5050918;28;20029;-68
2021/06/15 02:56:45;;;;;;;7.90;3.47;;;15.40;72.00;;;;;;5049655;28;20025;-66
2021/06/15 02:59:12;;;;;;;5.65;3.33;;;15.30;71.80;;;;;;5051026;28;20021;-67
2021/06/15 03:01:37;;;;;;;4.65;3.38;;;15.30;71.80;;;;;;5036535;28;20031;-67
2021/06/15 03:04:04;;;;;;;6.63;3.40;;;15.20;71.90;;;;;;5029515;28;20154;-67
2021/06/15 03:06:29;;;;;;;7.80;3.78;;;15.30;72.00;;;;;;5049145;28;20025;-67
2021/06/15 03:08:55;;;;;;;6.53;3.63;;;15.20;72.00;;;;;;5032122;28;20024;-67
2021/06/15 03:11:24;;;;;;;4.07;3.13;;;15.20;72.20;;;;;;5050534;28;20045;-67
2021/06/15 03:13:54;;;;;;;5.82;3.35;;;15.20;72.40;;;;;;5050135;28;20082;-68
2021/06/15 03:16:24;;;;;;;4.68;3.50;;;15.10;72.40;;;;;;5050524;28;20043;-67
2021/06/15 03:19:13;;;;;;;6.70;3.70;;;15.10;72.40;;;;;;5050421;28;20495;-68
2021/06/15 03:21:45;;;;;;;5.32;3.40;;;15.10;72.70;;;;;;5050396;28;20358;-68
2021/06/15 03:24:17;;;;;;;3.97;3.10;;;15.00;72.40;;;;;;5049288;28;20031;-67
2021/06/15 03:27:01;;;;;;;6.18;3.47;;;15.00;72.40;;;;;;5050099;28;20044;-67
2021/06/15 03:32:00;;;;;;;4.72;3.42;;;15.00;72.40;;;;;;5027807;28;20045;-67
2021/06/15 03:34:30;;;;;;;5.13;3.78;;;15.00;72.40;;;;;;5028875;28;20025;-67
2021/06/15 03:36:57;;;;;;;5.65;3.83;;;15.00;72.60;;;;;;5030264;28;20038;-67
2021/06/15 03:39:24;;;;;;;5.40;3.55;;;15.00;72.60;;;;;;5024845;28;20021;-67
2021/06/15 03:41:56;;;;;;;7.20;3.33;;;14.90;72.60;;;;;;5029762;28;20087;-67
2021/06/15 03:44:22;;;;;;;5.95;3.55;;;14.90;72.80;;;;;;5028479;28;20452;-68
2021/06/15 03:46:53;;;;;;;4.25;3.65;;;14.90;72.60;;;;;;5029965;28;20060;-67
2021/06/15 03:49:22;;;;;;;8.47;3.47;;;14.90;73.00;;;;;;5029920;28;20538;-67
2021/06/15 03:51:52;;;;;;;4.72;3.30;;;14.80;72.80;;;;;;5030193;28;20462;-67
2021/06/15 03:54:18;;;;;;;4.43;3.63;;;14.70;72.90;;;;;;5022540;28;20029;-67
2021/06/15 03:56:46;;;;;;;6.18;3.83;;;14.70;73.00;;;;;;5010649;28;20052;-67
2021/06/15 03:59:16;;;;;;;6.55;3.67;;;14.60;73.30;;;;;;5010878;28;20026;-68
2021/06/15 04:01:42;;;;;;;4.78;3.67;;;14.50;73.50;;;;;;5031878;28;20021;-68
2021/06/15 04:04:10;;;;;;;3.50;3.17;;;14.50;73.60;;;;;;5030440;28;20065;-68
2021/06/15 04:06:39;;;;;;;4.68;3.50;;;14.60;73.70;;;;;;5029967;28;20100;-67
2021/06/15 04:09:06;;;;;;;7.90;3.30;;;14.60;73.80;;;;;;5029347;28;20083;-68
2021/06/15 04:11:35;;;;;;;7.10;3.78;;;14.60;73.80;;;;;;5018378;28;20661;-68
2021/06/15 04:14:03;;;;;;;5.18;3.40;;;14.60;73.90;;;;;;5028111;28;20033;-68
2021/06/15 04:16:29;;;;;;;5.47;3.72;;;14.60;73.80;;;;;;5012404;28;20546;-68
2021/06/15 04:18:58;;;;;;;6.82;3.70;;;14.60;73.60;;;;;;5025899;28;20112;-68
2021/06/15 04:21:25;;;;;;;5.53;3.60;;;14.60;73.70;;;;;;5014732;28;20049;-68
2021/06/15 04:23:57;;;;;;;5.80;4.03;;;14.60;73.80;;;;;;5017800;28;20092;-68
2021/06/15 04:26:23;;;;;;;5.28;3.70;;;14.60;74.10;;;;;;5018049;28;20100;-68
2021/06/15 04:28:49;;;;;;;9.07;5.30;;;14.60;74.00;;;;;;5014796;28;20030;-68
2021/06/15 04:31:16;;;;;;;11.82;4.90;;;14.70;74.20;;;;;;5010557;28;20135;-68
2021/06/15 04:33:45;;;;;;;7.63;4.75;;;14.80;74.40;;;;;;5033225;28;20022;-68
2021/06/15 04:36:12;;;;;;;7.63;5.05;;;14.90;74.50;;;;;;5033143;28;20025;-68
2021/06/15 04:38:46;;;;;;;6.15;4.72;;;15.10;74.40;;;;;;5029044;28;20026;-68
2021/06/15 04:41:22;;;;;;;8.88;5.40;;;15.10;74.50;;;;;;5014305;28;20029;-68
2021/06/15 04:44:21;;;;;;;10.73;5.13;;;15.20;74.30;;;;;;5020307;28;20359;-68
2021/06/15 04:46:50;;;;;;;9.15;5.90;;;15.40;75.10;;;;;;5026016;28;20029;-68
2021/06/15 04:49:17;;;;;;;8.80;6.15;;;15.50;74.20;;;;;;5021588;28;20132;-68
2021/06/15 04:51:45;;;;;;;8.95;5.30;;;15.60;74.10;;;;;;4996372;28;20061;-68
2021/06/15 04:54:12;;;;;;;6.15;4.35;;;15.70;74.20;;;;;;5030959;28;20389;-68
2021/06/15 04:56:41;;;;;;;8.43;4.95;;;15.70;74.20;;;;;;5014127;28;20363;-68
2021/06/15 04:59:09;;;;;;;9.18;5.72;;;15.80;74.10;;;;;;5031442;28;20090;-68
2021/06/15 05:01:36;;;;;;;8.32;5.15;;;15.90;74.10;;;;;;5030657;28;20083;-68
2021/06/15 05:04:04;;;;;;;6.30;4.75;;;15.90;74.20;;;;;;5024406;28;20032;-68
2021/06/15 05:06:31;;;;;;;7.45;5.18;;;16.00;74.20;;;;;;5033543;28;20796;-68
2021/06/15 05:08:59;;;;;;;8.60;5.32;;;16.10;74.30;;;;;;5032967;28;20444;-68
2021/06/15 05:11:26;;;;;;;7.03;4.47;;;16.30;74.30;;;;;;5013483;28;20125;-68
2021/06/15 05:13:54;;;;;;;7.13;4.72;;;16.40;74.30;;;;;;5032242;28;20512;-68
2021/06/15 05:16:23;;;;;;;11.00;4.28;;;16.40;74.10;;;;;;5023517;28;20605;-68
2021/06/15 05:18:49;;;;;;;4.78;4.20;;;16.50;74.10;;;;;;5013436;28;20036;-68
2021/06/15 05:21:21;;;;;;;8.60;3.97;;;16.70;74.10;;;;;;5014674;28;20390;-68
2021/06/15 05:23:57;;;;;;;5.97;4.57;;;16.80;74.00;;;;;;5013582;28;20022;-68
2021/06/15 05:26:23;;;;;;;6.68;4.30;;;16.90;74.10;;;;;;5030220;28;20492;-68
2021/06/15 05:28:50;;;;;;;5.97;4.80;;;17.00;73.90;;;;;;5032467;28;20029;-68
2021/06/15 05:31:15;;;;;;;5.47;4.30;;;17.10;73.90;;;;;;5026263;28;20029;-68
2021/06/15 05:33:41;;;;;;;8.43;4.10;;;17.30;73.80;;;;;;5032359;28;20389;-68
2021/06/15 05:36:07;;;;;;;7.97;5.10;;;17.30;73.60;;;;;;5032166;28;20469;-69
2021/06/15 05:38:33;;;;;;;6.68;4.72;;;17.40;73.30;;;;;;5029130;28;20025;-68
2021/06/15 05:40:59;;;;;;;9.43;4.85;;;17.40;73.20;;;;;;5013089;28;20236;-69
2021/06/15 05:43:25;;;;;;;10.00;5.10;;;17.40;73.30;;;;;;5016828;28;20056;-68
2021/06/15 05:45:50;;;;;;;5.45;4.47;;;17.50;73.30;;;;;;5031929;28;20030;-68
2021/06/15 05:48:16;;;;;;;6.57;4.18;;;17.50;73.00;;;;;;5018698;28;20756;-68
2021/06/15 05:50:42;;;;;;;6.78;4.53;;;17.50;73.10;;;;;;5014907;28;20018;-68
2021/06/15 05:53:07;;;;;;;5.93;4.63;;;17.60;73.40;;;;;;5033026;28;20040;-68
2021/06/15 05:55:33;;;;;;;9.15;4.20;;;17.60;73.30;;;;;;4995269;28;20030;-68
2021/06/15 05:57:59;;;;;;;11.60;4.65;;;17.80;73.50;;;;;;5013431;28;20037;-68
2021/06/15 06:00:24;;;;;;;6.80;4.32;;;17.90;73.50;;;;;;5019944;28;20057;-68
2021/06/15 06:02:51;;;;;;;4.65;4.22;;;18.00;73.30;;;;;;5024279;28;20033;-68
2021/06/15 06:10:26;;;;;;;5.75;4.20;;;18.40;73.20;;;;;;5027708;28;20080;-68
2021/06/15 06:12:52;;;;;;;7.07;4.20;;;18.50;73.10;;;;;;5029664;28;20033;-68
2021/06/15 06:15:18;;;;;;;9.80;3.85;;;18.70;72.80;;;;;;5030720;28;20037;-68
2021/06/15 06:17:44;;;;;;;6.40;3.38;;;18.80;72.40;;;;;;5029290;28;20025;-68
2021/06/15 06:20:12;;;;;;;9.60;4.00;;;19.00;72.30;;;;;;5033773;28;20074;-68
2021/06/15 06:22:39;;;;;;;8.38;4.40;;;19.20;72.00;;;;;;5033414;28;20445;-69
2021/06/15 06:25:06;;;;;;;8.98;3.65;;;19.40;71.70;;;;;;5000067;28;20030;-68
2021/06/15 06:27:32;;;;;;;6.63;4.18;;;19.50;71.60;;;;;;5018535;28;20477;-69
2021/06/15 06:29:58;;;;;;;9.50;4.28;;;19.60;71.20;;;;;;5033155;28;20080;-69
2021/06/15 06:32:23;;;;;;;11.38;4.32;;;19.70;71.10;;;;;;5015499;28;20097;-69
2021/06/15 06:34:49;;;;;;;8.50;3.90;;;19.80;70.90;;;;;;5013130;28;20044;-69
2021/06/15 06:37:14;;;;;;;8.82;4.07;;;19.80;70.70;;;;;;5026193;28;20026;-70
2021/06/15 06:39:41;;;;;;;8.23;3.60;;;20.00;70.90;;;;;;5029139;28;20026;-69
2021/06/15 06:42:08;;;;;;;5.95;3.28;;;20.10;70.60;;;;;;5033526;28;20469;-69
2021/06/15 06:44:34;;;;;;;5.40;3.75;;;20.30;70.30;;;;;;5022263;28;20034;-69
2021/06/15 06:46:59;;;;;;;4.65;3.80;;;20.40;69.70;;;;;;5013996;28;20026;-68
2021/06/15 06:49:25;;;;;;;7.40;3.70;;;20.50;69.40;;;;;;5029303;28;20033;-69
2021/06/15 06:51:50;;;;;;;5.93;3.15;;;20.60;69.10;;;;;;5030006;28;20033;-69
2021/06/15 06:54:16;;;;;;;3.70;3.10;;;20.80;68.80;;;;;;5018106;28;20776;-69
2021/06/15 06:56:41;;;;;;;7.80;3.30;;;20.90;68.40;;;;;;5012642;28;20030;-69
2021/06/15 06:59:07;;;;;;;6.57;3.58;;;21.10;68.10;;;;;;5012127;28;20105;-69
2021/06/15 07:01:32;;;;;;;6.70;3.78;;;21.30;68.60;;;;;;5025711;28;20374;-69
2021/06/15 07:03:58;;;;;;;4.57;3.22;;;21.50;67.90;;;;;;5027483;28;20085;-68
2021/06/15 07:06:23;;;;;;;7.72;3.60;;;21.70;67.50;;;;;;5011480;28;20071;-68
2021/06/15 07:08:49;;;;;;;4.97;3.00;;;21.80;67.10;;;;;;5022465;28;20092;-70
2021/06/15 07:11:15;;;;;;;3.45;2.78;;;22.00;66.60;;;;;;5013027;28;20026;-69
2021/06/15 07:13:40;;;;;;;3.63;2.67;;;22.20;66.10;;;;;;5012067;28;20026;-69
2021/06/15 07:16:06;;;;;;;3.92;2.55;;;22.40;65.80;;;;;;5016679;28;20026;-70
2021/06/15 07:18:36;;;;;;;3.42;2.30;;;22.60;65.30;;;;;;5014618;28;20037;-70
2021/06/15 07:21:03;;;;;;;5.80;2.63;;;22.70;64.80;;;;;;5011613;28;20034;-70
2021/06/15 07:23:28;;;;;;;2.88;2.50;;;22.90;64.20;;;;;;5012514;28;20026;-70
2021/06/15 07:25:54;;;;;;;2.72;2.42;;;23.10;63.20;;;;;;5010712;28;20052;-69
2021/06/15 07:28:19;;;;;;;5.55;2.60;;;23.30;62.40;;;;;;5011792;28;20088;-72
2021/06/15 07:30:45;;;;;;;5.57;2.38;;;23.50;62.10;;;;;;5017842;28;20034;-69
2021/06/15 07:33:11;;;;;;;3.22;2.00;;;23.70;62.80;;;;;;5028906;28;20032;-69
2021/06/15 07:35:36;;;;;;;2.38;1.88;;;23.80;62.60;;;;;;5028331;28;20547;-70
2021/06/15 07:38:02;;;;;;;4.78;2.05;;;24.00;61.70;;;;;;5016639;28;20505;-71
2021/06/15 07:40:28;;;;;;;6.97;2.63;;;24.20;61.60;;;;;;5017004;28;20091;-69
2021/06/15 07:42:56;;;;;;;6.47;2.80;;;24.30;61.00;;;;;;5027191;28;20485;-69
2021/06/15 07:45:24;;;;;;;7.13;3.15;;;24.40;60.40;;;;;;5033671;28;20082;-70
2021/06/15 07:47:50;;;;;;;7.43;4.93;;;24.60;59.90;;;;;;5039204;28;20034;-70
2021/06/15 07:50:17;;;;;;;14.88;12.02;;;24.80;59.90;;;;;;5030931;28;20104;-70
2021/06/15 07:52:43;;;;;;;11.45;6.75;;;25.00;59.50;;;;;;5030705;28;20028;-71
2021/06/15 07:55:12;;;;;;;5.63;3.67;;;25.10;59.50;;;;;;5029740;28;20116;-70
2021/06/15 07:57:37;;;;;;;6.75;3.47;;;25.30;59.50;;;;;;5030762;28;20049;-71
2021/06/15 08:00:05;;;;;;;5.20;3.55;;;25.60;59.00;;;;;;5024589;28;20064;-70
2021/06/15 08:02:30;;;;;;;5.90;3.33;;;25.90;59.20;;;;;;5030432;28;20039;-71
2021/06/15 08:04:56;;;;;;;3.78;2.88;;;26.20;58.60;;;;;;5030214;28;20029;-70
2021/06/15 08:07:21;;;;;;;5.47;3.00;;;26.40;57.50;;;;;;5030216;28;20393;-70
2021/06/15 08:09:47;;;;;;;5.68;2.90;;;26.70;56.80;;;;;;5030790;28;20099;-70
2021/06/15 08:12:15;;;;;;;5.05;2.35;;;26.90;56.20;;;;;;5030734;28;20056;-70
2021/06/15 08:14:40;;;;;;;6.85;2.08;;;27.10;54.80;;;;;;5023090;28;20025;-70
2021/06/15 08:17:06;;;;;;;7.53;2.03;;;27.30;54.60;;;;;;5010988;28;20029;-70
2021/06/15 08:19:31;;;;;;;4.72;1.80;;;27.60;54.40;;;;;;5023581;28;20474;-70
2021/06/15 08:21:57;;;;;;;5.28;2.42;;;27.80;53.20;;;;;;5020796;28;20179;-70
2021/06/15 08:24:22;;;;;;;3.67;2.30;;;28.10;52.70;;;;;;5009970;28;20033;-70
2021/06/15 08:26:48;;;;;;;5.90;1.90;;;28.30;52.60;;;;;;5010520;28;20093;-70
2021/06/15 08:29:13;;;;;;;6.25;2.30;;;28.50;52.10;;;;;;5011233;28;20022;-70
2021/06/15 08:31:39;;;;;;;5.63;2.50;;;28.80;52.00;;;;;;5020493;28;20105;-70
2021/06/15 08:34:05;;;;;;;4.90;2.45;;;29.10;51.40;;;;;;5026741;28;20036;-70
2021/06/15 08:36:30;;;;;;;3.53;2.70;;;29.50;50.30;;;;;;5013431;28;20030;-70
2021/06/15 08:38:56;;;;;;;2.70;2.28;;;29.80;49.60;;;;;;4992848;28;20026;-70
2021/06/15 08:41:22;;;;;;;7.57;1.67;;;30.20;48.50;;;;;;5010980;28;20097;-69
2021/06/15 08:43:49;;;;;;;8.00;1.83;;;30.50;48.20;;;;;;5010649;28;20284;-70
2021/06/15 08:46:15;;;;;;;8.18;1.90;;;30.90;47.40;;;;;;4992369;28;20026;-70
2021/06/15 08:48:41;;;;;;;6.55;2.17;;;31.40;46.70;;;;;;5011459;28;20029;-70
2021/06/15 08:51:07;;;;;;;5.28;2.53;;;31.90;46.00;;;;;;5013886;28;20029;-68
2021/06/15 08:53:34;;;;;;;3.33;1.65;;;32.30;45.20;;;;;;5030254;28;20076;-70
2021/06/15 08:56:23;;;;;;;4.35;1.88;;;32.70;44.40;;;;;;5022904;28;20030;-70
2021/06/15 08:59:18;;;;;;;4.43;1.63;;;32.90;43.20;;;;;;5009891;28;20079;-70
2021/06/15 09:01:49;;;;;;;2.85;1.20;;;33.10;42.50;;;;;;5013781;28;20053;-70
2021/06/15 09:04:15;;;;;;;8.90;1.50;;;33.30;41.50;;;;;;5027355;28;20018;-70
2021/06/15 09:06:41;;;;;;;3.22;1.60;;;33.60;41.60;;;;;;5021258;28;20064;-70
2021/06/15 09:09:07;;;;;;;2.30;1.50;;;33.80;41.30;;;;;;5020574;28;20017;-70
2021/06/15 09:12:05;;;;;;;5.97;1.60;;;34.20;40.50;;;;;;5024911;28;20025;-67
2021/06/15 09:14:53;;;;;;;3.40;1.38;;;35.00;39.90;;;;;;4996456;28;20398;-68
2021/06/15 09:17:28;;;;;;;6.45;1.65;;;35.50;39.20;;;;;;5031145;28;20014;-69
2021/06/15 09:19:56;;;;;;;2.78;1.70;;;35.90;38.30;;;;;;5032815;28;20021;-67
2021/06/15 09:22:32;;;;;;;2.67;1.35;;;36.20;38.00;;;;;;5033338;28;20048;-66
2021/06/15 09:24:58;;;;;;;4.00;1.60;;;36.40;37.40;;;;;;5031754;28;20025;-65
2021/06/15 09:27:34;;;;;;;3.85;1.38;;;36.40;37.10;;;;;;5027056;28;20034;-65
2021/06/15 09:30:03;;;;;;;2.25;1.42;;;36.20;36.50;;;;;;5030107;28;20095;-66
2021/06/15 09:32:36;;;;;;;3.47;1.23;;;36.00;37.10;;;;;;5024705;28;20021;-67
2021/06/15 09:35:26;;;;;;;5.20;1.63;;;36.00;37.30;;;;;;5030235;28;20391;-67
2021/06/15 09:37:55;;;;;;;3.13;1.40;;;35.80;37.20;;;;;;5030641;28;20060;-67
2021/06/15 09:40:26;;;;;;;4.50;1.73;;;35.80;36.80;;;;;;5019528;28;20381;-67
2021/06/15 09:43:03;;;;;;;5.63;1.30;;;35.70;36.20;;;;;;5024543;28;20022;-68
2021/06/15 09:45:35;;;;;;;6.38;1.27;;;35.50;36.50;;;;;;5013371;28;20084;-66
2021/06/15 09:48:23;;;;;;;2.65;1.25;;;35.70;36.20;;;;;;5050268;28;20028;-66
2021/06/15 09:50:57;;;;;;;4.13;1.40;;;35.90;35.40;;;;;;5025592;28;20029;-66
2021/06/15 09:53:44;;;;;;;3.35;1.10;;;35.90;34.30;;;;;;5022452;28;20026;-67
2021/06/15 09:56:14;;;;;;;3.28;1.40;;;36.00;35.50;;;;;;5012029;28;20442;-66
2021/06/15 09:58:46;;;;;;;2.72;1.40;;;36.00;35.20;;;;;;4997071;28;20030;-67
2021/06/15 10:01:33;;;;;;;3.65;1.55;;;36.00;35.80;;;;;;5027565;28;20030;-67
2021/06/15 10:04:24;;;;;;;3.13;1.27;;;35.90;36.20;;;;;;5027027;28;20108;-67
2021/06/15 10:06:51;;;;;;;1.63;1.30;;;35.60;36.10;;;;;;5017026;28;20096;-67
2021/06/15 10:09:34;;;;;;;1.60;1.20;;;35.20;35.90;;;;;;5029458;28;20029;-66
2021/06/15 10:12:06;;;;;;;1.58;1.10;;;34.90;35.30;;;;;;5030552;28;20069;-67
2021/06/15 10:14:32;;;;;;;1.88;1.10;;;34.40;35.30;;;;;;5016004;28;20422;-66
2021/06/15 10:16:59;;;;;;;2.30;1.33;;;34.00;35.70;;;;;;5031675;28;20357;-67
2021/06/15 10:19:26;;;;;;;2.05;1.30;;;33.80;36.90;;;;;;5028335;28;20405;-67
2021/06/15 10:21:53;;;;;;;2.67;1.42;;;33.70;37.40;;;;;;5021158;28;20119;-66
2021/06/15 10:24:23;;;;;;;1.80;1.20;;;33.70;36.30;;;;;;5025545;28;20033;-66
2021/06/15 10:26:48;;;;;;;4.40;2.85;;;33.40;36.50;;;;;;5023381;28;20109;-66
2021/06/15 10:29:16;;;;;;;4.68;1.80;;;33.10;37.80;;;;;;5029609;28;20141;-66
2021/06/15 10:31:44;;;;;;;2.83;1.30;;;32.80;37.80;;;;;;5035124;28;20021;-66
2021/06/15 10:34:10;;;;;;;3.13;1.17;;;32.80;38.10;;;;;;5047218;28;20056;-67
2021/06/15 10:36:44;;;;;;;2.92;1.20;;;32.60;38.00;;;;;;5028687;28;20025;-67
2021/06/15 10:39:41;;;;;;;4.15;1.20;;;32.60;37.80;;;;;;5027684;28;20183;-67
2021/06/15 10:42:16;;;;;;;2.40;1.30;;;32.40;37.50;;;;;;5024385;28;20461;-67
2021/06/15 10:44:44;;;;;;;7.60;1.42;;;32.10;37.50;;;;;;5030694;28;20385;-66
2021/06/15 10:47:11;;;;;;;3.60;1.25;;;31.90;38.20;;;;;;5031527;28;20551;-67
2021/06/15 10:49:58;;;;;;;1.20;1.00;;;31.80;38.50;;;;;;5031496;28;20543;-67
2021/06/15 10:52:24;;;;;;;2.13;1.23;;;31.70;39.10;;;;;;5026486;28;20104;-67
2021/06/15 10:54:50;;;;;;;2.70;1.27;;;31.50;38.60;;;;;;5030274;28;20083;-67
2021/06/15 10:57:22;;;;;;;2.83;1.23;;;31.30;38.80;;;;;;5031338;28;20025;-66
2021/06/15 11:00:05;;;;;;;2.65;1.35;;;31.20;39.10;;;;;;5011963;28;20445;-66
2021/06/15 11:02:32;;;;;;;2.25;1.40;;;31.20;39.30;;;;;;5029301;28;20029;-66
2021/06/15 11:04:59;;;;;;;2.70;1.48;;;31.20;39.30;;;;;;5029861;28;20116;-67
2021/06/15 11:07:35;;;;;;;1.75;1.30;;;31.10;39.00;;;;;;5025716;28;20022;-66
2021/06/15 11:10:04;;;;;;;1.75;1.20;;;31.00;38.90;;;;;;5021620;28;20024;-67
2021/06/15 11:12:29;;;;;;;3.22;1.50;;;30.90;38.60;;;;;;5030019;28;20044;-66
2021/06/15 11:15:13;;;;;;;3.75;1.40;;;30.90;38.00;;;;;;4992463;28;20026;-66
2021/06/15 11:17:53;;;;;;;2.80;1.13;;;30.70;39.00;;;;;;5030257;28;20028;-67
2021/06/15 11:20:32;;;;;;;1.98;1.10;;;30.70;38.10;;;;;;5037871;28;20446;-66
2021/06/15 11:23:33;;;;;;;2.70;1.08;;;30.60;37.80;;;;;;5030356;28;20132;-66
2021/06/15 11:26:13;;;;;;;2.30;1.20;;;30.50;38.10;;;;;;5017858;28;20058;-66
2021/06/15 11:31:21;;;;;;;3.85;1.00;;;30.40;38.30;;;;;;5025315;28;20053;-69
2021/06/15 11:33:58;;;;;;;3.38;1.25;;;30.30;37.90;;;;;;5024273;28;20030;-69
2021/06/15 11:36:46;;;;;;;1.38;1.00;;;30.30;38.90;;;;;;5029882;28;20426;-69
2021/06/15 11:39:26;;;;;;;4.25;1.17;;;30.30;38.00;;;;;;5030867;28;20079;-70
2021/06/15 11:42:09;;;;;;;16.25;1.65;;;30.30;38.10;;;;;;5010951;28;20018;-69
2021/06/15 11:44:59;;;;;;;1.38;1.10;;;30.30;37.70;;;;;;5028601;28;20091;-69
2021/06/15 11:47:28;;;;;;;3.08;1.20;;;30.40;37.90;;;;;;5012463;28;20366;-70
2021/06/15 11:50:13;;;;;;;1.88;1.30;;;30.40;38.60;;;;;;5030550;28;20075;-71
2021/06/15 11:52:51;;;;;;;1.52;0.88;;;30.40;38.80;;;;;;5029845;28;20025;-69
2021/06/15 11:55:19;;;;;;;3.38;1.27;;;30.50;38.90;;;;;;5027788;28;20039;-69
2021/06/15 11:57:44;;;;;;;2.85;1.30;;;30.50;38.60;;;;;;5001416;28;20030;-69
2021/06/15 12:00:18;;;;;;;2.83;1.10;;;30.40;38.30;;;;;;5028970;28;20022;-70
2021/06/15 12:02:45;;;;;;;2.10;0.95;;;30.30;38.30;;;;;;5030049;28;20693;-70
2021/06/15 12:05:16;;;;;;;2.58;1.10;;;30.30;38.50;;;;;;5007898;28;20049;-70
2021/06/15 12:07:51;;;;;;;1.98;1.10;;;30.30;38.00;;;;;;5009369;28;20121;-69
2021/06/15 12:10:17;;;;;;;4.70;1.30;;;30.30;38.90;;;;;;4992856;28;20026;-70
2021/06/15 12:13:00;;;;;;;2.58;1.25;;;30.30;38.90;;;;;;4997868;28;20025;-70
2021/06/15 12:15:43;;;;;;;4.07;1.02;;;30.30;39.90;;;;;;5011268;28;20069;-70
2021/06/15 12:18:29;;;;;;;3.00;1.10;;;30.30;39.40;;;;;;5012299;28;20033;-71
2021/06/15 12:21:01;;;;;;;2.00;1.20;;;30.40;39.50;;;;;;5029400;28;20025;-70
2021/06/15 12:23:30;;;;;;;2.28;1.20;;;30.40;39.00;;;;;;5012913;28;20511;-69
2021/06/15 12:26:10;;;;;;;5.63;3.60;;;30.40;39.10;;;;;;5011194;28;20034;-70
2021/06/15 12:28:50;;;;;;;2.83;1.10;;;30.40;39.90;;;;;;5028431;28;20034;-70
2021/06/15 12:31:32;;;;;;;3.50;1.08;;;30.30;39.10;;;;;;5029969;28;20029;-70
2021/06/15 12:34:06;;;;;;;3.35;1.20;;;30.30;39.60;;;;;;5028402;28;20101;-70
2021/06/15 12:36:44;;;;;;;2.72;1.10;;;30.20;39.90;;;;;;5010688;28;20378;-70
2021/06/15 12:39:11;;;;;;;2.97;1.10;;;30.20;39.60;;;;;;5016807;28;20377;-69
2021/06/15 12:41:44;;;;;;;1.50;0.98;;;30.30;39.70;;;;;;5033658;28;20095;-70
2021/06/15 12:44:09;;;;;;;1.33;0.90;;;30.30;38.80;;;;;;5032600;28;20037;-70
2021/06/15 12:46:38;;;;;;;3.70;1.00;;;30.20;39.00;;;;;;5033359;28;20052;-70
2021/06/15 12:49:15;;;;;;;1.63;1.20;;;30.20;39.20;;;;;;5034035;28;20029;-70
2021/06/15 12:51:45;;;;;;;2.03;1.05;;;30.10;38.80;;;;;;5032891;28;20106;-70
2021/06/15 12:54:32;;;;;;;2.35;1.30;;;30.00;38.50;;;;;;5024108;28;20061;-69
2021/06/15 12:57:02;;;;;;;1.25;0.95;;;29.90;38.80;;;;;;5014865;28;20029;-69
2021/06/15 12:59:28;;;;;;;2.08;1.02;;;29.90;38.70;;;;;;5028246;28;20021;-72
2021/06/15 13:01:54;;;;;;;6.57;1.10;;;29.90;38.50;;;;;;5031882;28;20261;-70
2021/06/15 13:04:24;;;;;;;2.45;0.95;;;29.80;38.50;;;;;;5032422;28;20125;-70
2021/06/15 13:06:52;;;;;;;2.45;1.10;;;29.70;38.40;;;;;;5032407;28;20049;-70
2021/06/15 13:09:20;;;;;;;3.03;1.00;;;29.60;38.90;;;;;;5014947;28;20022;-70
2021/06/15 13:12:05;;;;;;;3.80;0.80;;;29.60;38.60;;;;;;5033223;28;20030;-71